Time;durP1;ratioP1;P1;durP2;ratioP2;P2;SDS_P1;SDS_P2;PMS_P1;PMS_P2;Temp;Humidity;BMP_temperature;BMP_pressure;BME280_temperature;BME280_humidity;BME280_pressure;Samples;Min_cycle;Max_cycle;Signal;HPM_P1;HPM_P2
2022/02/09 00:10:05;;;;;;;;;33.25;30.50;;;;;;;;5056955;28;45248;-74
2022/02/09 00:12:41;;;;;;;;;39.75;30.00;;;;;;;;5056935;28;46149;-76
2022/02/09 00:17:43;;;;;;;;;34.50;31.75;;;;;;;;5057641;28;45321;-75
2022/02/09 01:40:24;;;;;;;;;27.50;24.50;;;;;;;;5053118;28;45375;-74
2022/02/09 01:55:24;;;;;;;;;24.00;22.25;;;;;;;;5055633;28;45407;-75
2022/02/09 01:56:44;;;;;;;;;24.75;22.00;;;;;;;;5056183;28;45502;-75
2022/02/09 01:59:09;;;;;;;;;27.50;25.25;;;;;;;;5036168;28;46105;-76
2022/02/09 02:01:34;;;;;;;;;25.75;21.25;;;;;;;;5055914;28;45627;-76
2022/02/09 02:04:00;;;;;;;;;25.75;22.50;;;;;;;;5055184;28;45409;-75
2022/02/09 02:06:25;;;;;;;;;25.75;22.25;;;;;;;;5055134;28;45233;-76
2022/02/09 02:08:52;;;;;;;;;26.75;24.00;;;;;;;;5055511;28;46137;-76
2022/02/09 02:11:25;;;;;;;;;17.25;14.75;;;;;;;;5055737;28;45319;-75
2022/02/09 02:14:02;;;;;;;;;22.25;18.25;;;;;;;;5055950;28;45549;-75
2022/02/09 02:19:07;;;;;;;;;21.25;19.75;;;;;;;;5058829;28;46186;-76
2022/02/09 02:26:48;;;;;;;;;24.00;18.75;;;;;;;;5059267;28;45589;-75
2022/02/09 02:32:02;;;;;;;;;21.25;17.50;;;;;;;;5059102;28;45616;-75
2022/02/09 02:38:08;;;;;;;;;21.75;21.75;;;;;;;;5054890;28;45394;-75
2022/02/09 02:58:26;;;;;;;;;22.75;20.25;;;;;;;;5034769;28;45392;-75
2022/02/09 03:14:24;;;;;;;;;26.50;20.75;;;;;;;;5041269;28;45418;-75
2022/02/09 03:16:57;;;;;;;;;29.25;24.25;;;;;;;;5041227;28;45458;-74
2022/02/09 03:43:41;;;;;;;;;24.50;22.25;;;;;;;;5057967;28;45928;-74
2022/02/09 03:46:28;;;;;;;;;23.25;18.75;;;;;;;;5055342;28;45414;-75
2022/02/09 03:51:38;;;;;;;;;22.50;21.75;;;;;;;;5057885;28;45359;-74
2022/02/09 03:59:09;;;;;;;;;26.75;22.75;;;;;;;;5059615;28;45514;-74
2022/02/09 04:01:38;;;;;;;;;26.25;22.75;;;;;;;;5057383;28;45757;-74
2022/02/09 04:04:04;;;;;;;;;24.50;23.50;;;;;;;;5057138;28;46245;-75
2022/02/09 04:06:34;;;;;;;;;27.25;23.50;;;;;;;;5057339;28;45411;-75
2022/02/09 04:09:01;;;;;;;;;24.50;22.75;;;;;;;;5059962;28;45447;-75
2022/02/09 04:11:32;;;;;;;;;25.25;20.50;;;;;;;;5057269;28;45408;-75
2022/02/09 04:14:11;;;;;;;;;29.25;23.00;;;;;;;;5057164;28;46215;-74
2022/02/09 04:19:12;;;;;;;;;28.25;25.75;;;;;;;;5056483;28;45298;-75
2022/02/09 04:43:28;;;;;;;;;31.25;27.25;;;;;;;;5056437;28;45324;-75
2022/02/09 04:49:34;;;;;;;;;18.00;17.75;;;;;;;;5057520;28;45538;-75
2022/02/09 05:04:25;;;;;;;;;22.00;19.75;;;;;;;;5055859;28;45450;-75
2022/02/09 05:17:58;;;;;;;;;19.25;18.00;;;;;;;;5059814;28;45562;-76
2022/02/09 05:26:38;;;;;;;;;22.75;22.50;;;;;;;;5056477;28;45468;-76
2022/02/09 05:28:36;;;;;;;;;20.00;20.00;;;;;;;;5041728;28;45423;-74
2022/02/09 05:31:03;;;;;;;;;18.25;15.75;;;;;;;;5055351;28;45399;-77
2022/02/09 05:33:29;;;;;;;;;23.25;19.25;;;;;;;;5055849;28;45390;-76
2022/02/09 05:35:54;;;;;;;;;23.50;20.75;;;;;;;;5056134;28;45459;-76
2022/02/09 05:38:19;;;;;;;;;24.00;22.00;;;;;;;;5055841;28;45455;-74
2022/02/09 05:40:45;;;;;;;;;21.75;20.25;;;;;;;;5058284;28;45353;-76
2022/02/09 05:43:11;;;;;;;;;22.50;19.75;;;;;;;;5055443;27;45615;-76
2022/02/09 05:49:16;;;;;;;;;19.25;18.00;;;;;;;;5057408;28;45294;-75
2022/02/09 05:51:39;;;;;;;;;26.75;21.25;;;;;;;;5056939;28;45453;-76
2022/02/09 05:54:26;;;;;;;;;21.25;20.75;;;;;;;;5055465;28;45556;-76
2022/02/09 05:57:26;;;;;;;;;27.00;19.50;;;;;;;;5055717;28;45438;-75
2022/02/09 05:59:37;;;;;;;;;26.00;18.75;;;;;;;;5056154;28;45495;-75
2022/02/09 06:02:03;;;;;;;;;20.25;18.50;;;;;;;;5055780;28;45453;-74
2022/02/09 06:04:28;;;;;;;;;26.00;22.25;;;;;;;;5055189;28;46012;-73
2022/02/09 06:06:53;;;;;;;;;25.25;21.25;;;;;;;;5054688;28;45353;-75
2022/02/09 06:09:18;;;;;;;;;25.25;21.75;;;;;;;;5055016;28;46679;-74
2022/02/09 06:21:56;;;;;;;;;22.25;20.00;;;;;;;;5050382;28;45385;-76
2022/02/09 06:24:21;;;;;;;;;23.50;21.25;;;;;;;;5056335;28;45337;-76
2022/02/09 06:26:46;;;;;;;;;28.25;22.75;;;;;;;;5057202;28;45397;-76
2022/02/09 06:29:12;;;;;;;;;26.50;21.75;;;;;;;;5057239;27;46171;-76
2022/02/09 06:31:38;;;;;;;;;29.25;26.00;;;;;;;;5056581;28;45456;-77
2022/02/09 06:34:04;;;;;;;;;25.00;22.00;;;;;;;;5054405;28;45306;-77
2022/02/09 06:36:29;;;;;;;;;27.00;20.75;;;;;;;;5056257;27;45482;-77
2022/02/09 06:38:56;;;;;;;;;23.75;21.00;;;;;;;;5055658;28;46130;-75
2022/02/09 06:41:21;;;;;;;;;24.00;21.75;;;;;;;;5054529;28;45315;-76
2022/02/09 06:43:47;;;;;;;;;28.25;23.25;;;;;;;;5054992;28;45386;-77
2022/02/09 06:46:13;;;;;;;;;34.00;25.50;;;;;;;;5055422;28;45469;-76
2022/02/09 06:48:40;;;;;;;;;23.75;19.25;;;;;;;;5053750;28;47226;-77
2022/02/09 06:51:12;;;;;;;;;26.00;22.50;;;;;;;;5054547;28;45542;-75
2022/02/09 06:53:46;;;;;;;;;21.75;21.50;;;;;;;;5054685;28;45281;-76
2022/02/09 06:56:22;;;;;;;;;26.00;23.75;;;;;;;;5054890;28;45432;-76
2022/02/09 06:59:10;;;;;;;;;25.25;22.00;;;;;;;;5055016;28;46213;-78
2022/02/09 07:01:35;;;;;;;;;27.00;24.75;;;;;;;;5039713;28;45522;-75
2022/02/09 07:04:01;;;;;;;;;32.75;29.50;;;;;;;;5039584;28;45319;-75
2022/02/09 07:06:26;;;;;;;;;21.25;17.50;;;;;;;;5064501;28;45379;-77
2022/02/09 07:08:51;;;;;;;;;22.75;19.75;;;;;;;;5065430;28;45372;-77
2022/02/09 07:11:16;;;;;;;;;26.50;25.00;;;;;;;;5059265;28;45285;-76
2022/02/09 07:13:41;;;;;;;;;29.75;27.50;;;;;;;;5059038;28;45240;-77
2022/02/09 07:16:07;;;;;;;;;29.75;28.00;;;;;;;;5058455;28;45321;-76
2022/02/09 07:18:32;;;;;;;;;36.25;28.75;;;;;;;;5041739;28;48292;-79
2022/02/09 07:21:04;;;;;;;;;40.75;34.25;;;;;;;;5058716;28;45308;-76
2022/02/09 07:23:48;;;;;;;;;36.25;29.00;;;;;;;;5072830;28;45323;-78
2022/02/09 07:26:18;;;;;;;;;45.25;36.75;;;;;;;;5070437;28;44845;-75
2022/02/09 07:28:44;;;;;;;;;40.75;33.00;;;;;;;;5049207;28;47213;-77
2022/02/09 07:31:10;;;;;;;;;38.50;33.50;;;;;;;;5066149;28;45246;-78
2022/02/09 07:33:36;;;;;;;;;44.50;36.75;;;;;;;;5055467;28;45440;-75
2022/02/09 07:36:01;;;;;;;;;48.00;38.75;;;;;;;;5061843;28;45229;-76
2022/02/09 07:38:27;;;;;;;;;45.00;37.75;;;;;;;;5059998;28;45547;-77
2022/02/09 07:40:57;;;;;;;;;37.75;33.00;;;;;;;;5058358;27;45545;-75
2022/02/09 07:43:27;;;;;;;;;39.25;33.25;;;;;;;;5056571;28;45392;-78
2022/02/09 07:48:56;;;;;;;;;46.50;35.75;;;;;;;;5053675;28;45965;-77
2022/02/09 07:53:58;;;;;;;;;43.25;33.75;;;;;;;;5056311;28;45454;-77
2022/02/09 07:56:23;;;;;;;;;47.25;36.75;;;;;;;;5057042;28;45407;-77
2022/02/09 07:58:48;;;;;;;;;48.00;39.75;;;;;;;;5056879;28;45366;-78
2022/02/09 08:01:14;;;;;;;;;42.00;33.50;;;;;;;;5057103;28;45523;-77
2022/02/09 08:03:41;;;;;;;;;38.25;34.25;;;;;;;;5040258;28;45469;-78
2022/02/09 08:06:06;;;;;;;;;42.00;34.75;;;;;;;;5057843;28;45485;-77
2022/02/09 08:08:33;;;;;;;;;38.50;35.25;;;;;;;;5038386;28;47084;-77
2022/02/09 08:11:12;;;;;;;;;39.25;34.75;;;;;;;;5055505;28;45410;-77
2022/02/09 08:30:00;;;;;;;;;47.00;36.75;;;;;;;;5057036;28;45551;-77
2022/02/09 08:34:54;;;;;;;;;51.50;36.25;;;;;;;;5057389;28;45589;-77
2022/02/09 08:37:19;;;;;;;;;45.00;37.25;;;;;;;;5056780;28;45510;-75
2022/02/09 08:39:45;;;;;;;;;48.75;37.75;;;;;;;;5041434;28;46138;-77
2022/02/09 08:42:10;;;;;;;;;43.25;36.50;;;;;;;;5039187;28;45315;-78
2022/02/09 08:44:35;;;;;;;;;40.75;34.25;;;;;;;;5039289;28;45290;-78
2022/02/09 08:47:01;;;;;;;;;41.75;34.75;;;;;;;;5038261;28;45473;-75
2022/02/09 08:49:28;;;;;;;;;43.75;35.00;;;;;;;;5038122;28;46096;-79
2022/02/09 08:51:57;;;;;;;;;38.75;32.75;;;;;;;;5034243;28;45367;-76
2022/02/09 08:54:22;;;;;;;;;38.75;34.50;;;;;;;;5038056;28;45310;-77
2022/02/09 08:56:47;;;;;;;;;41.25;36.50;;;;;;;;5037976;28;45602;-78
2022/02/09 08:59:13;;;;;;;;;40.25;34.75;;;;;;;;5037910;28;47018;-75
2022/02/09 09:01:42;;;;;;;;;43.50;33.75;;;;;;;;5038080;28;45297;-75
2022/02/09 09:04:25;;;;;;;;;42.50;33.75;;;;;;;;5035909;28;45397;-77
2022/02/09 09:06:56;;;;;;;;;35.25;29.25;;;;;;;;5034391;28;45383;-76
2022/02/09 10:03:17;;;;;;;;;29.75;25.75;;;;;;;;4998955;28;46185;-76
2022/02/09 10:14:06;;;;;;;;;25.75;21.00;;;;;;;;4998980;28;45560;-77
2022/02/09 10:31:21;;;;;;;;;28.00;28.00;;;;;;;;4993239;28;45425;-77
2022/02/09 10:33:54;;;;;;;;;36.25;32.50;;;;;;;;4985391;28;45466;-74
2022/02/09 10:36:20;;;;;;;;;39.50;33.25;;;;;;;;4991590;28;46359;-78
2022/02/09 10:38:47;;;;;;;;;28.25;27.00;;;;;;;;4988635;28;45519;-77
2022/02/09 10:41:22;;;;;;;;;27.50;23.50;;;;;;;;4986148;28;45502;-75
2022/02/09 10:43:49;;;;;;;;;27.50;25.50;;;;;;;;4995015;28;45548;-77
2022/02/09 10:46:15;;;;;;;;;29.50;26.00;;;;;;;;4995213;28;45296;-76
2022/02/09 10:48:53;;;;;;;;;28.00;21.75;;;;;;;;4994098;28;45469;-77
2022/02/09 10:51:30;;;;;;;;;34.00;24.75;;;;;;;;4995202;28;45409;-76
2022/02/09 10:53:59;;;;;;;;;22.75;20.50;;;;;;;;5027119;28;45352;-77
2022/02/09 10:56:25;;;;;;;;;24.75;22.75;;;;;;;;5036965;28;45397;-75
2022/02/09 10:58:50;;;;;;;;;29.50;26.25;;;;;;;;5037305;28;45618;-77
2022/02/09 11:01:15;;;;;;;;;29.25;26.50;;;;;;;;5037522;28;45405;-77
2022/02/09 11:03:41;;;;;;;;;27.50;25.25;;;;;;;;5036743;28;45541;-76
2022/02/09 11:06:06;;;;;;;;;30.25;28.00;;;;;;;;5037164;28;46400;-76
2022/02/09 11:08:32;;;;;;;;;27.00;24.50;;;;;;;;5036910;28;45546;-76
2022/02/09 11:10:59;;;;;;;;;39.50;33.00;;;;;;;;5030515;28;45675;-75
2022/02/09 11:13:24;;;;;;;;;34.75;31.25;;;;;;;;5021145;28;45471;-79
2022/02/09 11:15:50;;;;;;;;;26.25;24.00;;;;;;;;5036116;28;45972;-77
2022/02/09 11:18:19;;;;;;;;;28.00;25.75;;;;;;;;5038164;28;45501;-77
2022/02/09 11:20:57;;;;;;;;;30.00;28.50;;;;;;;;5038293;28;45459;-77
2022/02/09 11:23:37;;;;;;;;;27.00;25.50;;;;;;;;5039524;28;45404;-79
2022/02/09 11:26:10;;;;;;;;;24.00;20.75;;;;;;;;5020155;28;46178;-77
2022/02/09 11:28:40;;;;;;;;;23.25;21.00;;;;;;;;5040236;28;45443;-77
2022/02/09 11:31:21;;;;;;;;;27.25;24.25;;;;;;;;5037541;28;45347;-78
2022/02/09 11:33:56;;;;;;;;;19.50;16.25;;;;;;;;5034772;28;45353;-77
2022/02/09 11:36:32;;;;;;;;;26.50;23.75;;;;;;;;5036453;28;46462;-75
2022/02/09 11:39:21;;;;;;;;;22.00;15.25;;;;;;;;5046004;28;45803;-78
2022/02/09 11:41:57;;;;;;;;;28.00;24.50;;;;;;;;5057593;28;45422;-78
2022/02/09 11:45:15;;;;;;;;;24.00;20.50;;;;;;;;5056669;28;45532;-77
2022/02/09 11:48:07;;;;;;;;;25.25;22.75;;;;;;;;5056142;28;45363;-77
2022/02/09 12:09:34;;;;;;;;;21.25;18.25;;;;;;;;5055986;27;45779;-78
2022/02/09 12:12:04;;;;;;;;;23.50;23.00;;;;;;;;5055608;28;45442;-78
2022/02/09 12:20:35;;;;;;;;;17.75;17.75;;;;;;;;5055593;28;45968;-77
2022/02/09 12:23:14;;;;;;;;;25.00;23.50;;;;;;;;5055971;28;45456;-78
2022/02/09 12:25:47;;;;;;;;;26.00;26.00;;;;;;;;5055779;28;45404;-77
2022/02/09 12:28:18;;;;;;;;;24.25;23.75;;;;;;;;5055312;28;45320;-77
2022/02/09 12:30:44;;;;;;;;;22.00;20.00;;;;;;;;5054090;28;46218;-76
2022/02/09 12:33:18;;;;;;;;;23.75;21.75;;;;;;;;5055059;28;47808;-78
2022/02/09 12:35:43;;;;;;;;;24.00;22.25;;;;;;;;5055984;28;45309;-78
2022/02/09 12:38:08;;;;;;;;;23.50;22.25;;;;;;;;5060838;28;45331;-78
2022/02/09 12:40:35;;;;;;;;;22.25;21.00;;;;;;;;5061991;28;46001;-77
2022/02/09 12:43:02;;;;;;;;;25.25;24.25;;;;;;;;5056225;28;45411;-76
2022/02/09 12:45:27;;;;;;;;;25.00;20.75;;;;;;;;5056416;28;45597;-78
2022/02/09 12:48:03;;;;;;;;;25.00;22.00;;;;;;;;5058952;27;45593;-78
2022/02/09 12:50:31;;;;;;;;;26.50;24.25;;;;;;;;5056627;28;46215;-77
2022/02/09 12:52:56;;;;;;;;;30.75;27.00;;;;;;;;5055145;28;45378;-77
2022/02/09 12:55:25;;;;;;;;;29.75;27.25;;;;;;;;5055902;28;45281;-77
2022/02/09 12:58:05;;;;;;;;;26.25;23.25;;;;;;;;5054631;28;45502;-77
2022/02/09 13:00:40;;;;;;;;;26.00;21.50;;;;;;;;5055513;28;47023;-77
2022/02/09 13:03:07;;;;;;;;;24.75;24.75;;;;;;;;5054182;28;45444;-77
2022/02/09 13:05:40;;;;;;;;;26.00;25.00;;;;;;;;5055506;28;45597;-77
2022/02/09 13:08:05;;;;;;;;;20.00;19.25;;;;;;;;5057147;28;45555;-78
2022/02/09 13:10:32;;;;;;;;;28.00;26.75;;;;;;;;5054825;28;46238;-77
2022/02/09 13:13:05;;;;;;;;;30.75;28.50;;;;;;;;5054322;28;45382;-77
2022/02/09 13:15:35;;;;;;;;;19.00;16.25;;;;;;;;5055156;28;45409;-77
2022/02/09 13:23:25;;;;;;;;;26.75;24.50;;;;;;;;5055343;28;45435;-77
2022/02/09 14:06:44;;;;;;;;;28.25;20.50;;;;;;;;5054391;28;45426;-78
2022/02/09 14:19:34;;;;;;;;;27.50;22.75;;;;;;;;5053545;28;45391;-76
2022/02/09 14:54:39;;;;;;;;;26.50;24.75;;;;;;;;5057559;28;45431;-77
2022/02/09 14:57:12;;;;;;;;;28.00;26.50;;;;;;;;5059308;28;45473;-77
2022/02/09 15:02:15;;;;;;;;;25.75;23.25;;;;;;;;5057819;28;45351;-77
2022/02/09 15:10:03;;;;;;;;;26.50;24.00;;;;;;;;5056824;28;45322;-76
2022/02/09 15:12:34;;;;;;;;;20.50;17.75;;;;;;;;5057964;28;45325;-77
2022/02/09 15:15:09;;;;;;;;;24.25;24.25;;;;;;;;5058704;28;45513;-78
2022/02/09 15:18:02;;;;;;;;;29.75;21.75;;;;;;;;5059605;28;45528;-78
2022/02/09 15:23:24;;;;;;;;;21.75;21.75;;;;;;;;4995260;28;45559;-76
2022/02/09 15:25:49;;;;;;;;;26.25;20.00;;;;;;;;4996737;28;45480;-77
2022/02/09 15:28:15;;;;;;;;;31.00;26.00;;;;;;;;4995112;28;45581;-77
2022/02/09 15:30:54;;;;;;;;;27.50;25.50;;;;;;;;4993746;28;46334;-77
2022/02/09 15:33:24;;;;;;;;;23.00;22.00;;;;;;;;4995198;28;45531;-77
2022/02/09 15:35:56;;;;;;;;;24.25;21.00;;;;;;;;4994530;28;45437;-78
2022/02/09 15:38:25;;;;;;;;;18.50;16.25;;;;;;;;4997587;28;45573;-77
2022/02/09 15:41:06;;;;;;;;;22.75;22.75;;;;;;;;5008410;28;45366;-78
2022/02/09 16:05:44;;;;;;;;;23.50;20.50;;;;;;;;4878057;29;45531;-78
2022/02/09 16:24:11;;;;;;;;;21.00;21.00;;;;;;;;4877236;29;46328;-78
2022/02/09 16:48:27;;;;;;;;;23.00;20.25;;;;;;;;4934855;28;45348;-77
2022/02/09 16:50:52;;;;;;;;;22.50;18.25;;;;;;;;4934281;28;45628;-77
2022/02/09 16:56:25;;;;;;;;;24.50;20.25;;;;;;;;4972443;28;45464;-77
2022/02/09 17:15:42;;;;;;;;;18.25;14.75;;;;;;;;5012409;28;45519;-77
2022/02/09 17:20:52;;;;;;;;;20.50;18.50;;;;;;;;5054242;28;45460;-77
2022/02/09 17:23:17;;;;;;;;;24.75;23.00;;;;;;;;5054866;28;45431;-77
2022/02/09 17:25:44;;;;;;;;;20.50;18.50;;;;;;;;5054968;28;45233;-77
2022/02/09 17:28:11;;;;;;;;;16.75;15.75;;;;;;;;5054606;28;46122;-77
2022/02/09 17:30:58;;;;;;;;;16.75;15.50;;;;;;;;5054067;28;45304;-77
2022/02/09 17:38:48;;;;;;;;;17.75;17.00;;;;;;;;5053767;28;45447;-78
2022/02/09 17:57:41;;;;;;;;;20.00;16.75;;;;;;;;5056495;28;45374;-77
2022/02/09 18:00:13;;;;;;;;;16.75;15.50;;;;;;;;5054150;28;46523;-78
2022/02/09 18:02:38;;;;;;;;;13.00;11.75;;;;;;;;5053769;28;45545;-79
2022/02/09 18:05:07;;;;;;;;;19.25;18.25;;;;;;;;5054416;28;45335;-77
2022/02/09 18:07:35;;;;;;;;;17.00;16.25;;;;;;;;5053828;28;45488;-79
2022/02/09 18:10:10;;;;;;;;;21.00;17.25;;;;;;;;5053068;28;47153;-78
2022/02/09 18:31:23;;;;;;;;;15.75;14.00;;;;;;;;4951267;28;45557;-78
2022/02/09 18:34:07;;;;;;;;;16.50;14.50;;;;;;;;4951343;28;45307;-78
2022/02/09 18:44:41;;;;;;;;;16.50;13.00;;;;;;;;4951737;28;45554;-77
2022/02/09 18:47:39;;;;;;;;;14.75;14.75;;;;;;;;4951085;28;45592;-77
2022/02/09 19:03:40;;;;;;;;;18.75;15.00;;;;;;;;4974384;28;45797;-79
2022/02/09 19:06:27;;;;;;;;;17.50;15.75;;;;;;;;5008680;28;45477;-78
2022/02/09 19:14:26;;;;;;;;;22.50;20.50;;;;;;;;5057483;28;45808;-78
2022/02/09 19:42:29;;;;;;;;;35.25;30.25;;;;;;;;4976463;28;45588;-76
2022/02/09 19:47:16;;;;;;;;;39.50;33.75;;;;;;;;4976285;28;45452;-75
2022/02/09 19:55:20;;;;;;;;;44.50;37.00;;;;;;;;4978798;28;45474;-73
2022/02/09 19:57:46;;;;;;;;;53.00;42.00;;;;;;;;4978289;28;46093;-74
2022/02/09 20:00:16;;;;;;;;;38.50;33.25;;;;;;;;4976410;28;45837;-83
2022/02/09 20:02:46;;;;;;;;;37.25;33.75;;;;;;;;4971865;28;45490;-78
2022/02/09 20:05:11;;;;;;;;;38.00;32.50;;;;;;;;4972340;28;45388;-79
2022/02/09 20:07:37;;;;;;;;;36.50;34.00;;;;;;;;5042129;28;46008;-79
2022/02/09 20:10:02;;;;;;;;;43.25;36.00;;;;;;;;5058257;28;45482;-77
2022/02/09 20:12:27;;;;;;;;;43.75;37.75;;;;;;;;5060781;28;45483;-80
2022/02/09 20:14:53;;;;;;;;;44.75;36.25;;;;;;;;5059008;28;45392;-73
2022/02/09 20:17:18;;;;;;;;;39.75;34.50;;;;;;;;5056823;28;46180;-80
2022/02/09 20:19:52;;;;;;;;;43.75;36.75;;;;;;;;5056847;28;45336;-78
2022/02/09 20:22:18;;;;;;;;;52.00;42.75;;;;;;;;5057026;28;45554;-75
2022/02/09 20:24:43;;;;;;;;;41.75;34.25;;;;;;;;5056155;28;45496;-73
2022/02/09 20:27:13;;;;;;;;;49.25;40.50;;;;;;;;5056316;28;47519;-77
2022/02/09 20:29:39;;;;;;;;;41.50;36.25;;;;;;;;5056931;28;45379;-77
2022/02/09 20:34:38;;;;;;;;;42.50;35.75;;;;;;;;5057592;28;45351;-77
2022/02/09 20:37:06;;;;;;;;;47.00;37.50;;;;;;;;5055976;28;45519;-76
2022/02/09 20:39:38;;;;;;;;;42.50;35.50;;;;;;;;5057279;28;45285;-78
2022/02/09 20:42:05;;;;;;;;;36.75;33.25;;;;;;;;5056664;28;45484;-77
2022/02/09 20:44:37;;;;;;;;;45.75;36.00;;;;;;;;5056623;28;45509;-81
2022/02/09 20:47:02;;;;;;;;;40.75;34.50;;;;;;;;5056794;28;47174;-82
2022/02/09 20:49:28;;;;;;;;;42.50;35.50;;;;;;;;5056904;28;45546;-80
2022/02/09 20:51:53;;;;;;;;;40.25;34.25;;;;;;;;5056035;28;45363;-80
2022/02/09 20:54:19;;;;;;;;;44.50;37.50;;;;;;;;5056714;28;45305;-81
2022/02/09 20:56:44;;;;;;;;;44.75;36.00;;;;;;;;5059205;28;45523;-80
2022/02/09 20:59:12;;;;;;;;;33.75;31.00;;;;;;;;5056347;28;45527;-80
2022/02/09 21:01:45;;;;;;;;;45.25;37.75;;;;;;;;5056639;28;45381;-81
2022/02/09 21:04:14;;;;;;;;;46.00;38.00;;;;;;;;5056632;28;45351;-82
2022/02/09 21:09:24;;;;;;;;;48.50;38.25;;;;;;;;5056551;27;45471;-77
2022/02/09 21:22:28;;;;;;;;;44.75;37.25;;;;;;;;5056855;28;45424;-82
2022/02/09 21:59:19;;;;;;;;;34.50;32.75;;;;;;;;5015387;28;45989;-73
2022/02/09 22:28:20;;;;;;;;;54.50;42.25;;;;;;;;5057950;28;45350;-86
2022/02/09 22:50:12;;;;;;;;;49.00;40.75;;;;;;;;4978928;28;45550;-84
2022/02/09 22:55:21;;;;;;;;;45.25;37.00;;;;;;;;4979462;28;45365;-84
2022/02/09 22:58:00;;;;;;;;;51.25;40.25;;;;;;;;4979590;28;45396;-84
2022/02/09 23:00:35;;;;;;;;;50.75;40.00;;;;;;;;4983946;28;45540;-83
2022/02/09 23:03:01;;;;;;;;;49.25;40.00;;;;;;;;4991169;28;46996;-83
2022/02/09 23:08:28;;;;;;;;;55.50;42.50;;;;;;;;5061572;28;45485;-84
2022/02/09 23:14:02;;;;;;;;;48.25;38.75;;;;;;;;5059440;28;45518;-84
2022/02/09 23:27:13;;;;;;;;;47.25;38.75;;;;;;;;5059986;28;45499;-84
2022/02/09 23:54:41;;;;;;;;;50.50;40.00;;;;;;;;5062926;28;45379;-83
